sensor_id;sensor_type;location;lat;lon;timestamp;pressure;altitude;pressure_sealevel;temperature;humidity
31062;BME280;17724;53.546;9.974;2023-03-04T00:01:19;102066.88;;;6.84;94.82
31062;BME280;17724;53.546;9.974;2023-03-04T00:05:19;102058.22;;;6.81;94.21
31062;BME280;17724;53.546;9.974;2023-03-04T00:09:20;102052.72;;;6.74;94.18
31062;BME280;17724;53.546;9.974;2023-03-04T00:13:20;102067.69;;;6.78;94.02
31062;BME280;17724;53.546;9.974;2023-03-04T00:17:21;102053.88;;;6.93;93.50
31062;BME280;17724;53.546;9.974;2023-03-04T00:21:22;102070.53;;;6.98;93.31
31062;BME280;17724;53.546;9.974;2023-03-04T00:25:23;102066.19;;;6.76;93.32
31062;BME280;17724;53.546;9.974;2023-03-04T00:29:23;102057.81;;;6.84;93.60
31062;BME280;17724;53.546;9.974;2023-03-04T00:33:24;102055.63;;;6.66;94.33
31062;BME280;17724;53.546;9.974;2023-03-04T00:37:24;102046.84;;;6.77;93.95
31062;BME280;17724;53.546;9.974;2023-03-04T00:41:25;102045.78;;;6.72;94.00
31062;BME280;17724;53.546;9.974;2023-03-04T00:45:25;102034.19;;;6.70;94.79
31062;BME280;17724;53.546;9.974;2023-03-04T00:49:26;102054.25;;;6.90;93.83
31062;BME280;17724;53.546;9.974;2023-03-04T00:53:27;102045.56;;;6.73;94.50
31062;BME280;17724;53.546;9.974;2023-03-04T00:57:27;102035.47;;;6.74;95.41
31062;BME280;17724;53.546;9.974;2023-03-04T01:01:27;102033.66;;;6.87;94.31
31062;BME280;17724;53.546;9.974;2023-03-04T01:05:28;102022.91;;;6.86;93.81
31062;BME280;17724;53.546;9.974;2023-03-04T01:09:29;102023.25;;;6.70;94.57
31062;BME280;17724;53.546;9.974;2023-03-04T01:13:29;102020.41;;;6.91;94.22
31062;BME280;17724;53.546;9.974;2023-03-04T01:17:30;102016.66;;;6.99;93.90
31062;BME280;17724;53.546;9.974;2023-03-04T01:21:30;102004.09;;;6.63;94.78
31062;BME280;17724;53.546;9.974;2023-03-04T01:25:31;101992.31;;;6.62;95.72
31062;BME280;17724;53.546;9.974;2023-03-04T01:29:32;101993.03;;;6.84;94.74
31062;BME280;17724;53.546;9.974;2023-03-04T01:33:33;101987.31;;;6.73;94.82
31062;BME280;17724;53.546;9.974;2023-03-04T01:37:33;101986.19;;;6.60;95.05
31062;BME280;17724;53.546;9.974;2023-03-04T01:41:34;101974.03;;;6.63;95.03
31062;BME280;17724;53.546;9.974;2023-03-04T01:45:35;101975.31;;;6.67;95.22
31062;BME280;17724;53.546;9.974;2023-03-04T01:49:35;101971.59;;;6.88;94.50
31062;BME280;17724;53.546;9.974;2023-03-04T01:53:36;101959.03;;;6.52;95.49
31062;BME280;17724;53.546;9.974;2023-03-04T01:57:38;101955.53;;;6.65;95.53
31062;BME280;17724;53.546;9.974;2023-03-04T02:01:40;101959.53;;;6.62;95.70
31062;BME280;17724;53.546;9.974;2023-03-04T02:05:45;101959.34;;;6.71;95.70
31062;BME280;17724;53.546;9.974;2023-03-04T02:09:47;101947.22;;;6.45;96.63
31062;BME280;17724;53.546;9.974;2023-03-04T02:13:48;101947.88;;;6.47;98.19
31062;BME280;17724;53.546;9.974;2023-03-04T02:17:49;101930.44;;;6.48;97.10
31062;BME280;17724;53.546;9.974;2023-03-04T02:21:50;101932.16;;;6.56;97.67
31062;BME280;17724;53.546;9.974;2023-03-04T02:30:18;101936.19;;;6.66;97.13
31062;BME280;17724;53.546;9.974;2023-03-04T02:34:22;101921.66;;;6.59;97.51
31062;BME280;17724;53.546;9.974;2023-03-04T02:38:23;101910.06;;;6.57;98.20
31062;BME280;17724;53.546;9.974;2023-03-04T02:42:24;101911.97;;;6.57;98.60
31062;BME280;17724;53.546;9.974;2023-03-04T02:46:25;101913.06;;;6.62;98.49
31062;BME280;17724;53.546;9.974;2023-03-04T02:50:27;101914.94;;;6.69;98.33
31062;BME280;17724;53.546;9.974;2023-03-04T02:54:29;101902.16;;;6.76;97.59
31062;BME280;17724;53.546;9.974;2023-03-04T02:58:29;101898.75;;;6.74;98.19
31062;BME280;17724;53.546;9.974;2023-03-04T03:02:30;101898.56;;;6.75;99.39
31062;BME280;17724;53.546;9.974;2023-03-04T03:06:30;101898.59;;;6.88;98.47
31062;BME280;17724;53.546;9.974;2023-03-04T03:10:32;101889.13;;;6.84;98.61
31062;BME280;17724;53.546;9.974;2023-03-04T03:14:32;101883.59;;;6.64;99.92
31062;BME280;17724;53.546;9.974;2023-03-04T03:18:34;101889.16;;;6.91;99.70
31062;BME280;17724;53.546;9.974;2023-03-04T03:22:34;101878.59;;;6.75;100.00
31062;BME280;17724;53.546;9.974;2023-03-04T03:26:35;101877.94;;;6.73;100.00
31062;BME280;17724;53.546;9.974;2023-03-04T03:30:35;101879.25;;;6.90;100.00
31062;BME280;17724;53.546;9.974;2023-03-04T03:34:39;101877.75;;;6.81;100.00
31062;BME280;17724;53.546;9.974;2023-03-04T03:38:42;101865.09;;;6.60;100.00
31062;BME280;17724;53.546;9.974;2023-03-04T03:42:43;101863.59;;;6.57;100.00
31062;BME280;17724;53.546;9.974;2023-03-04T03:46:44;101870.19;;;6.76;100.00
31062;BME280;17724;53.546;9.974;2023-03-04T03:50:46;101867.22;;;6.71;100.00
31062;BME280;17724;53.546;9.974;2023-03-04T03:54:46;101854.72;;;6.35;100.00
31062;BME280;17724;53.546;9.974;2023-03-04T03:58:46;101853.47;;;6.45;100.00
31062;BME280;17724;53.546;9.974;2023-03-04T04:02:47;101858.91;;;6.38;100.00
31062;BME280;17724;53.546;9.974;2023-03-04T04:06:47;101864.25;;;6.66;100.00
31062;BME280;17724;53.546;9.974;2023-03-04T04:10:48;101857.97;;;6.72;100.00
31062;BME280;17724;53.546;9.974;2023-03-04T04:14:48;101848.75;;;6.80;100.00
31062;BME280;17724;53.546;9.974;2023-03-04T04:18:49;101846.63;;;6.88;100.00
31062;BME280;17724;53.546;9.974;2023-03-04T04:22:49;101852.28;;;6.74;100.00
31062;BME280;17724;53.546;9.974;2023-03-04T04:26:50;101842.19;;;6.74;100.00
31062;BME280;17724;53.546;9.974;2023-03-04T04:30:50;101852.75;;;6.84;98.84
31062;BME280;17724;53.546;9.974;2023-03-04T04:34:51;101844.09;;;6.80;98.10
31062;BME280;17724;53.546;9.974;2023-03-04T04:38:51;101844.75;;;6.89;98.96
31062;BME280;17724;53.546;9.974;2023-03-04T04:42:52;101838.81;;;6.65;100.00
31062;BME280;17724;53.546;9.974;2023-03-04T04:46:52;101827.47;;;6.69;100.00
31062;BME280;17724;53.546;9.974;2023-03-04T04:50:54;101849.38;;;6.75;98.59
31062;BME280;17724;53.546;9.974;2023-03-04T04:54:55;101839.28;;;6.76;97.36
31062;BME280;17724;53.546;9.974;2023-03-04T04:58:58;101830.84;;;6.71;99.26
31062;BME280;17724;53.546;9.974;2023-03-04T05:02:59;101821.38;;;6.66;100.00
31062;BME280;17724;53.546;9.974;2023-03-04T05:07:00;101826.88;;;6.86;100.00
31062;BME280;17724;53.546;9.974;2023-03-04T05:11:01;101828.09;;;6.77;100.00
31062;BME280;17724;53.546;9.974;2023-03-04T05:15:01;101811.47;;;6.65;100.00
31062;BME280;17724;53.546;9.974;2023-03-04T05:19:02;101826.84;;;6.66;100.00
31062;BME280;17724;53.546;9.974;2023-03-04T05:23:03;101817.59;;;6.68;100.00
31062;BME280;17724;53.546;9.974;2023-03-04T05:27:03;101813.75;;;6.49;100.00
31062;BME280;17724;53.546;9.974;2023-03-04T05:31:04;101828.53;;;6.74;100.00
31062;BME280;17724;53.546;9.974;2023-03-04T05:35:05;101839.47;;;6.81;100.00
31062;BME280;17724;53.546;9.974;2023-03-04T05:39:05;101830.66;;;6.85;100.00
31062;BME280;17724;53.546;9.974;2023-03-04T05:43:06;101839.25;;;6.62;100.00
31062;BME280;17724;53.546;9.974;2023-03-04T05:47:06;101844.09;;;6.74;100.00
31062;BME280;17724;53.546;9.974;2023-03-04T05:51:07;101854.78;;;6.62;97.45
31062;BME280;17724;53.546;9.974;2023-03-04T05:55:08;101855.84;;;6.54;91.25
31062;BME280;17724;53.546;9.974;2023-03-04T05:59:08;101862.50;;;6.45;87.31
31062;BME280;17724;53.546;9.974;2023-03-04T06:03:21;101849.50;;;6.54;86.93
31062;BME280;17724;53.546;9.974;2023-03-04T06:07:21;101846.41;;;6.77;86.39
31062;BME280;17724;53.546;9.974;2023-03-04T06:11:22;101857.31;;;6.63;86.25
31062;BME280;17724;53.546;9.974;2023-03-04T06:15:22;101860.06;;;6.63;86.24
31062;BME280;17724;53.546;9.974;2023-03-04T06:19:23;101855.44;;;6.64;85.96
31062;BME280;17724;53.546;9.974;2023-03-04T06:23:24;101856.97;;;6.86;85.72
31062;BME280;17724;53.546;9.974;2023-03-04T06:27:25;101861.31;;;6.74;85.26
31062;BME280;17724;53.546;9.974;2023-03-04T06:31:26;101864.09;;;6.81;84.26
31062;BME280;17724;53.546;9.974;2023-03-04T06:35:26;101879.06;;;6.91;83.93
31062;BME280;17724;53.546;9.974;2023-03-04T06:39:27;101883.25;;;6.87;82.10
31062;BME280;17724;53.546;9.974;2023-03-04T06:43:27;101878.28;;;6.50;80.37
31062;BME280;17724;53.546;9.974;2023-03-04T06:47:28;101893.63;;;6.44;81.29
31062;BME280;17724;53.546;9.974;2023-03-04T06:51:28;101889.84;;;6.45;80.68
31062;BME280;17724;53.546;9.974;2023-03-04T06:55:29;101900.06;;;6.30;80.79
31062;BME280;17724;53.546;9.974;2023-03-04T06:59:30;101892.09;;;6.28;81.38
31062;BME280;17724;53.546;9.974;2023-03-04T07:03:30;101887.91;;;6.32;81.35
31062;BME280;17724;53.546;9.974;2023-03-04T07:07:31;101894.88;;;6.41;81.98
31062;BME280;17724;53.546;9.974;2023-03-04T07:11:31;101879.53;;;6.40;81.78
31062;BME280;17724;53.546;9.974;2023-03-04T07:15:32;101892.00;;;6.56;82.57
31062;BME280;17724;53.546;9.974;2023-03-04T07:19:32;101901.44;;;6.54;82.24
31062;BME280;17724;53.546;9.974;2023-03-04T07:23:33;101885.75;;;6.21;82.45
31062;BME280;17724;53.546;9.974;2023-03-04T07:27:34;101895.13;;;6.47;84.32
31062;BME280;17724;53.546;9.974;2023-03-04T07:31:35;101903.13;;;6.55;82.75
31062;BME280;17724;53.546;9.974;2023-03-04T07:35:36;101891.06;;;6.36;84.91
31062;BME280;17724;53.546;9.974;2023-03-04T07:39:36;101902.13;;;6.21;83.98
31062;BME280;17724;53.546;9.974;2023-03-04T07:43:37;101897.72;;;6.20;82.41
31062;BME280;17724;53.546;9.974;2023-03-04T07:47:37;101881.16;;;6.28;82.80
31062;BME280;17724;53.546;9.974;2023-03-04T07:51:38;101907.69;;;6.34;80.80
31062;BME280;17724;53.546;9.974;2023-03-04T07:55:39;101911.88;;;6.37;80.35
31062;BME280;17724;53.546;9.974;2023-03-04T07:59:39;101909.38;;;6.42;79.70
31062;BME280;17724;53.546;9.974;2023-03-04T08:03:40;101915.50;;;6.44;79.12
31062;BME280;17724;53.546;9.974;2023-03-04T08:07:40;101906.16;;;6.25;77.67
31062;BME280;17724;53.546;9.974;2023-03-04T08:11:42;101925.94;;;6.27;76.97
31062;BME280;17724;53.546;9.974;2023-03-04T08:15:42;101933.44;;;6.19;76.89
31062;BME280;17724;53.546;9.974;2023-03-04T08:19:43;101926.50;;;6.16;76.75
31062;BME280;17724;53.546;9.974;2023-03-04T08:23:44;101921.31;;;6.28;76.54
31062;BME280;17724;53.546;9.974;2023-03-04T08:27:45;101933.97;;;6.42;76.77
31062;BME280;17724;53.546;9.974;2023-03-04T08:31:47;101936.84;;;6.27;77.68
31062;BME280;17724;53.546;9.974;2023-03-04T08:35:47;101940.66;;;6.33;78.52
31062;BME280;17724;53.546;9.974;2023-03-04T08:39:48;101939.25;;;6.44;78.08
31062;BME280;17724;53.546;9.974;2023-03-04T08:43:48;101935.56;;;6.23;78.10
31062;BME280;17724;53.546;9.974;2023-03-04T08:47:50;101924.09;;;6.41;78.55
31062;BME280;17724;53.546;9.974;2023-03-04T08:51:51;101926.66;;;6.49;77.94
31062;BME280;17724;53.546;9.974;2023-03-04T08:55:51;101933.38;;;6.53;77.31
31062;BME280;17724;53.546;9.974;2023-03-04T08:59:52;101944.66;;;6.37;76.79
31062;BME280;17724;53.546;9.974;2023-03-04T09:03:53;101930.97;;;6.30;75.88
31062;BME280;17724;53.546;9.974;2023-03-04T09:07:53;101943.44;;;6.05;75.20
31062;BME280;17724;53.546;9.974;2023-03-04T09:11:53;101935.53;;;6.16;75.59
31062;BME280;17724;53.546;9.974;2023-03-04T09:15:54;101943.50;;;6.11;74.53
31062;BME280;17724;53.546;9.974;2023-03-04T09:19:54;101943.94;;;6.22;74.13
31062;BME280;17724;53.546;9.974;2023-03-04T09:23:55;101947.63;;;6.35;73.58
31062;BME280;17724;53.546;9.974;2023-03-04T09:27:56;101943.94;;;6.22;73.00
31062;BME280;17724;53.546;9.974;2023-03-04T09:31:56;101947.81;;;6.34;73.47
31062;BME280;17724;53.546;9.974;2023-03-04T09:35:57;101938.59;;;6.41;72.57
31062;BME280;17724;53.546;9.974;2023-03-04T09:39:58;101930.41;;;6.41;72.40
31062;BME280;17724;53.546;9.974;2023-03-04T09:43:59;101932.78;;;6.58;72.88
31062;BME280;17724;53.546;9.974;2023-03-04T09:48:00;101929.53;;;6.89;72.59
31062;BME280;17724;53.546;9.974;2023-03-04T09:56:20;101941.09;;;6.98;72.71
31062;BME280;17724;53.546;9.974;2023-03-04T10:00:24;101941.19;;;6.56;73.91
31062;BME280;17724;53.546;9.974;2023-03-04T10:04:30;101935.97;;;6.68;75.04
31062;BME280;17724;53.546;9.974;2023-03-04T10:09:04;101940.50;;;7.02;74.38
31062;BME280;17724;53.546;9.974;2023-03-04T10:13:13;101935.59;;;6.78;73.25
31062;BME280;17724;53.546;9.974;2023-03-04T10:17:21;101930.72;;;6.66;72.57
31062;BME280;17724;53.546;9.974;2023-03-04T10:21:30;101925.63;;;6.57;72.56
31062;BME280;17724;53.546;9.974;2023-03-04T10:25:33;101927.75;;;6.61;71.69
31062;BME280;17724;53.546;9.974;2023-03-04T10:29:35;101924.56;;;6.51;71.68
31062;BME280;17724;53.546;9.974;2023-03-04T10:33:38;101932.63;;;6.73;70.75
31062;BME280;17724;53.546;9.974;2023-03-04T10:37:46;101933.88;;;6.70;69.96
31062;BME280;17724;53.546;9.974;2023-03-04T10:46:14;101954.53;;;6.86;69.33
31062;BME280;17724;53.546;9.974;2023-03-04T10:50:25;101956.44;;;6.79;69.33
31062;BME280;17724;53.546;9.974;2023-03-04T10:54:30;101925.59;;;6.50;69.46
31062;BME280;17724;53.546;9.974;2023-03-04T10:58:31;101945.88;;;6.69;68.57
31062;BME280;17724;53.546;9.974;2023-03-04T11:02:33;101937.38;;;7.12;66.87
31062;BME280;17724;53.546;9.974;2023-03-04T11:06:39;101937.78;;;7.09;64.32
31062;BME280;17724;53.546;9.974;2023-03-04T11:10:43;101949.16;;;7.12;62.83
31062;BME280;17724;53.546;9.974;2023-03-04T11:14:49;101954.59;;;6.99;61.60
31062;BME280;17724;53.546;9.974;2023-03-04T11:18:52;101938.38;;;6.91;60.82
31062;BME280;17724;53.546;9.974;2023-03-04T11:22:56;101935.06;;;7.22;61.10
31062;BME280;17724;53.546;9.974;2023-03-04T11:31:07;101931.47;;;7.08;59.80
31062;BME280;17724;53.546;9.974;2023-03-04T11:35:33;101927.72;;;7.43;59.84
31062;BME280;17724;53.546;9.974;2023-03-04T11:39:38;101930.44;;;7.23;60.28
31062;BME280;17724;53.546;9.974;2023-03-04T11:43:43;101937.97;;;7.14;61.10
31062;BME280;17724;53.546;9.974;2023-03-04T12:17:21;101894.03;;;7.22;64.64
31062;BME280;17724;53.546;9.974;2023-03-04T12:21:48;101882.84;;;7.57;64.61
31062;BME280;17724;53.546;9.974;2023-03-04T12:26:32;101879.50;;;7.41;64.88
31062;BME280;17724;53.546;9.974;2023-03-04T12:30:39;101887.50;;;7.36;67.21
31062;BME280;17724;53.546;9.974;2023-03-04T12:34:54;101884.13;;;7.28;66.14
31062;BME280;17724;53.546;9.974;2023-03-04T12:39:15;101871.72;;;7.52;65.03
31062;BME280;17724;53.546;9.974;2023-03-04T12:43:29;101872.28;;;7.87;64.37
31062;BME280;17724;53.546;9.974;2023-03-04T12:52:04;101864.53;;;7.64;64.42
31062;BME280;17724;53.546;9.974;2023-03-04T12:56:20;101865.59;;;7.56;63.45
31062;BME280;17724;53.546;9.974;2023-03-04T13:01:15;101865.16;;;7.53;63.63
31062;BME280;17724;53.546;9.974;2023-03-04T13:09:53;101867.28;;;7.04;68.82
31062;BME280;17724;53.546;9.974;2023-03-04T13:18:31;101853.19;;;7.27;66.14
31062;BME280;17724;53.546;9.974;2023-03-04T13:26:39;101866.63;;;7.62;60.46
31062;BME280;17724;53.546;9.974;2023-03-04T13:31:10;101848.31;;;7.49;58.94
31062;BME280;17724;53.546;9.974;2023-03-04T13:52:49;101853.31;;;7.92;59.95
31062;BME280;17724;53.546;9.974;2023-03-04T14:00:59;101871.69;;;7.72;55.86
31062;BME280;17724;53.546;9.974;2023-03-04T14:05:00;101857.75;;;7.73;56.69
31062;BME280;17724;53.546;9.974;2023-03-04T14:09:15;101868.94;;;7.72;55.82
31062;BME280;17724;53.546;9.974;2023-03-04T14:13:16;101865.16;;;7.59;55.62
31062;BME280;17724;53.546;9.974;2023-03-04T14:17:19;101858.22;;;7.57;56.66
31062;BME280;17724;53.546;9.974;2023-03-04T14:21:21;101847.47;;;7.69;55.39
31062;BME280;17724;53.546;9.974;2023-03-04T14:25:25;101858.66;;;7.47;56.21
31062;BME280;17724;53.546;9.974;2023-03-04T14:29:28;101852.31;;;7.60;59.03
31062;BME280;17724;53.546;9.974;2023-03-04T14:33:30;101847.22;;;7.77;58.72
31062;BME280;17724;53.546;9.974;2023-03-04T14:42:07;101841.59;;;7.58;59.71
31062;BME280;17724;53.546;9.974;2023-03-04T14:46:12;101841.75;;;7.77;60.59
31062;BME280;17724;53.546;9.974;2023-03-04T14:50:17;101842.41;;;7.79;60.40
31062;BME280;17724;53.546;9.974;2023-03-04T14:54:40;101832.88;;;7.95;65.58
31062;BME280;17724;53.546;9.974;2023-03-04T14:58:52;101839.25;;;7.75;62.00
31062;BME280;17724;53.546;9.974;2023-03-04T15:02:55;101849.16;;;7.63;61.80
31062;BME280;17724;53.546;9.974;2023-03-04T15:06:57;101847.47;;;7.62;62.23
31062;BME280;17724;53.546;9.974;2023-03-04T15:10:59;101834.44;;;7.18;62.76
31062;BME280;17724;53.546;9.974;2023-03-04T15:15:03;101841.81;;;7.24;61.25
31062;BME280;17724;53.546;9.974;2023-03-04T15:19:23;101840.56;;;7.13;62.93
31062;BME280;17724;53.546;9.974;2023-03-04T15:23:25;101845.00;;;7.27;64.33
31062;BME280;17724;53.546;9.974;2023-03-04T15:27:28;101842.84;;;7.56;65.25
31062;BME280;17724;53.546;9.974;2023-03-04T15:31:29;101838.22;;;7.56;66.18
31062;BME280;17724;53.546;9.974;2023-03-04T15:35:31;101849.19;;;7.23;62.91
31062;BME280;17724;53.546;9.974;2023-03-04T15:39:32;101847.72;;;7.27;65.68
31062;BME280;17724;53.546;9.974;2023-03-04T15:43:32;101845.59;;;6.96;62.62
31062;BME280;17724;53.546;9.974;2023-03-04T15:47:33;101839.31;;;7.22;66.59
31062;BME280;17724;53.546;9.974;2023-03-04T15:51:35;101853.19;;;7.47;64.94
31062;BME280;17724;53.546;9.974;2023-03-04T15:55:36;101824.16;;;7.26;64.59
31062;BME280;17724;53.546;9.974;2023-03-04T15:59:39;101839.28;;;7.09;63.83
31062;BME280;17724;53.546;9.974;2023-03-04T16:03:39;101839.50;;;6.87;64.20
31062;BME280;17724;53.546;9.974;2023-03-04T16:07:45;101840.56;;;6.86;65.55
31062;BME280;17724;53.546;9.974;2023-03-04T16:11:46;101825.41;;;6.84;67.67
31062;BME280;17724;53.546;9.974;2023-03-04T16:15:47;101822.25;;;7.00;65.86
31062;BME280;17724;53.546;9.974;2023-03-04T16:19:48;101836.34;;;6.90;69.19
31062;BME280;17724;53.546;9.974;2023-03-04T16:23:50;101825.63;;;6.96;68.69
31062;BME280;17724;53.546;9.974;2023-03-04T16:27:52;101828.75;;;6.93;69.99
31062;BME280;17724;53.546;9.974;2023-03-04T16:31:55;101829.22;;;7.03;68.17
31062;BME280;17724;53.546;9.974;2023-03-04T16:35:56;101822.25;;;7.13;69.65
31062;BME280;17724;53.546;9.974;2023-03-04T16:39:57;101808.38;;;6.95;69.04
31062;BME280;17724;53.546;9.974;2023-03-04T16:43:59;101817.19;;;6.84;68.45
31062;BME280;17724;53.546;9.974;2023-03-04T16:48:00;101807.72;;;6.93;69.29
31062;BME280;17724;53.546;9.974;2023-03-04T16:52:28;101810.47;;;6.80;70.89
31062;BME280;17724;53.546;9.974;2023-03-04T16:56:30;101802.66;;;6.90;71.66
31062;BME280;17724;53.546;9.974;2023-03-04T17:00:30;101821.44;;;7.06;69.56
31062;BME280;17724;53.546;9.974;2023-03-04T17:04:31;101829.16;;;6.76;68.95
31062;BME280;17724;53.546;9.974;2023-03-04T17:08:35;101813.81;;;6.82;68.27
31062;BME280;17724;53.546;9.974;2023-03-04T17:12:36;101825.19;;;7.12;70.69
31062;BME280;17724;53.546;9.974;2023-03-04T17:16:43;101822.88;;;7.09;71.42
31062;BME280;17724;53.546;9.974;2023-03-04T17:20:43;101830.22;;;6.69;67.35
31062;BME280;17724;53.546;9.974;2023-03-04T17:24:43;101821.19;;;6.88;70.26
31062;BME280;17724;53.546;9.974;2023-03-04T17:28:44;101827.94;;;6.99;69.68
31062;BME280;17724;53.546;9.974;2023-03-04T17:32:44;101825.75;;;6.48;65.07
31062;BME280;17724;53.546;9.974;2023-03-04T17:36:45;101830.00;;;6.90;71.07
31062;BME280;17724;53.546;9.974;2023-03-04T17:40:46;101832.34;;;6.80;67.10
31062;BME280;17724;53.546;9.974;2023-03-04T17:44:47;101842.81;;;6.63;66.21
31062;BME280;17724;53.546;9.974;2023-03-04T17:48:48;101840.72;;;6.58;66.48
31062;BME280;17724;53.546;9.974;2023-03-04T17:52:48;101832.28;;;6.47;65.34
31062;BME280;17724;53.546;9.974;2023-03-04T17:56:49;101839.00;;;6.57;70.15
31062;BME280;17724;53.546;9.974;2023-03-04T18:00:51;101842.50;;;6.38;65.26
31062;BME280;17724;53.546;9.974;2023-03-04T18:04:52;101834.81;;;6.55;69.18
31062;BME280;17724;53.546;9.974;2023-03-04T18:08:55;101824.56;;;6.83;71.67
31062;BME280;17724;53.546;9.974;2023-03-04T18:12:56;101830.22;;;6.69;68.00
31062;BME280;17724;53.546;9.974;2023-03-04T18:16:56;101828.50;;;6.54;69.99
31062;BME280;17724;53.546;9.974;2023-03-04T18:20:58;101823.81;;;6.35;67.02
31062;BME280;17724;53.546;9.974;2023-03-04T18:24:59;101836.13;;;6.11;68.61
31062;BME280;17724;53.546;9.974;2023-03-04T18:29:03;101827.09;;;6.17;68.43
31062;BME280;17724;53.546;9.974;2023-03-04T18:33:03;101835.06;;;5.71;66.38
31062;BME280;17724;53.546;9.974;2023-03-04T18:37:04;101827.81;;;5.91;67.71
31062;BME280;17724;53.546;9.974;2023-03-04T18:41:09;101827.41;;;5.59;65.76
31062;BME280;17724;53.546;9.974;2023-03-04T18:45:11;101822.22;;;5.99;69.46
31062;BME280;17724;53.546;9.974;2023-03-04T18:49:13;101829.00;;;6.16;67.92
31062;BME280;17724;53.546;9.974;2023-03-04T18:53:14;101840.38;;;5.85;63.72
31062;BME280;17724;53.546;9.974;2023-03-04T18:57:14;101827.38;;;5.53;63.05
31062;BME280;17724;53.546;9.974;2023-03-04T19:01:18;101832.97;;;5.44;62.68
31062;BME280;17724;53.546;9.974;2023-03-04T19:05:29;101823.09;;;5.72;70.27
31062;BME280;17724;53.546;9.974;2023-03-04T19:09:31;101831.78;;;5.88;67.23
31062;BME280;17724;53.546;9.974;2023-03-04T19:13:32;101826.72;;;5.85;64.83
31062;BME280;17724;53.546;9.974;2023-03-04T19:17:36;101841.66;;;5.89;65.27
31062;BME280;17724;53.546;9.974;2023-03-04T19:21:37;101835.16;;;5.56;69.26
31062;BME280;17724;53.546;9.974;2023-03-04T19:25:39;101836.06;;;5.69;66.15
31062;BME280;17724;53.546;9.974;2023-03-04T19:29:40;101822.13;;;5.23;62.95
31062;BME280;17724;53.546;9.974;2023-03-04T19:33:40;101833.44;;;5.20;64.55
31062;BME280;17724;53.546;9.974;2023-03-04T19:37:41;101832.19;;;5.85;67.92
31062;BME280;17724;53.546;9.974;2023-03-04T19:41:41;101834.91;;;5.85;63.65
31062;BME280;17724;53.546;9.974;2023-03-04T19:45:42;101842.34;;;5.07;60.93
31062;BME280;17724;53.546;9.974;2023-03-04T19:49:42;101851.28;;;5.85;65.51
31062;BME280;17724;53.546;9.974;2023-03-04T19:53:43;101853.66;;;5.60;62.78
31062;BME280;17724;53.546;9.974;2023-03-04T19:57:44;101847.63;;;6.00;66.05
31062;BME280;17724;53.546;9.974;2023-03-04T20:01:45;101852.66;;;5.96;64.85
31062;BME280;17724;53.546;9.974;2023-03-04T20:05:46;101849.47;;;5.92;65.78
31062;BME280;17724;53.546;9.974;2023-03-04T20:09:47;101853.31;;;6.05;68.37
31062;BME280;17724;53.546;9.974;2023-03-04T20:13:47;101859.44;;;6.13;66.23
31062;BME280;17724;53.546;9.974;2023-03-04T20:17:48;101858.59;;;6.13;67.15
31062;BME280;17724;53.546;9.974;2023-03-04T20:21:48;101855.31;;;6.24;66.54
31062;BME280;17724;53.546;9.974;2023-03-04T20:25:49;101849.41;;;6.21;68.05
31062;BME280;17724;53.546;9.974;2023-03-04T20:29:49;101855.69;;;6.14;62.72
31062;BME280;17724;53.546;9.974;2023-03-04T20:33:51;101848.34;;;6.15;65.59
31062;BME280;17724;53.546;9.974;2023-03-04T20:37:52;101840.81;;;5.89;63.69
31062;BME280;17724;53.546;9.974;2023-03-04T20:41:53;101834.38;;;5.97;63.88
31062;BME280;17724;53.546;9.974;2023-03-04T20:45:54;101824.50;;;6.02;67.21
31062;BME280;17724;53.546;9.974;2023-03-04T20:49:54;101829.66;;;6.25;64.26
31062;BME280;17724;53.546;9.974;2023-03-04T20:53:55;101836.53;;;6.08;64.08
31062;BME280;17724;53.546;9.974;2023-03-04T20:57:56;101832.31;;;6.05;63.43
31062;BME280;17724;53.546;9.974;2023-03-04T21:01:56;101837.16;;;6.03;61.74
31062;BME280;17724;53.546;9.974;2023-03-04T21:06:04;101826.63;;;6.00;61.31
31062;BME280;17724;53.546;9.974;2023-03-04T21:10:05;101814.88;;;6.06;65.36
31062;BME280;17724;53.546;9.974;2023-03-04T21:14:27;101811.91;;;6.01;63.10
31062;BME280;17724;53.546;9.974;2023-03-04T21:18:28;101806.53;;;6.14;65.67
31062;BME280;17724;53.546;9.974;2023-03-04T21:22:28;101809.00;;;6.03;63.80
31062;BME280;17724;53.546;9.974;2023-03-04T21:26:29;101807.94;;;6.04;65.21
31062;BME280;17724;53.546;9.974;2023-03-04T21:30:29;101808.25;;;5.87;62.75
31062;BME280;17724;53.546;9.974;2023-03-04T21:34:37;101796.94;;;5.90;63.50
31062;BME280;17724;53.546;9.974;2023-03-04T21:38:40;101790.16;;;5.86;65.95
31062;BME280;17724;53.546;9.974;2023-03-04T21:42:40;101781.97;;;5.86;67.14
31062;BME280;17724;53.546;9.974;2023-03-04T21:46:41;101795.06;;;5.91;65.43
31062;BME280;17724;53.546;9.974;2023-03-04T21:50:41;101794.47;;;6.02;67.43
31062;BME280;17724;53.546;9.974;2023-03-04T21:54:42;101783.28;;;5.90;68.23
31062;BME280;17724;53.546;9.974;2023-03-04T21:58:43;101788.09;;;5.88;67.13
31062;BME280;17724;53.546;9.974;2023-03-04T22:02:45;101783.34;;;5.97;67.85
31062;BME280;17724;53.546;9.974;2023-03-04T22:06:45;101783.94;;;5.51;68.50
31062;BME280;17724;53.546;9.974;2023-03-04T22:10:46;101772.19;;;5.57;69.49
31062;BME280;17724;53.546;9.974;2023-03-04T22:14:47;101777.81;;;5.49;70.71
31062;BME280;17724;53.546;9.974;2023-03-04T22:18:47;101773.06;;;5.30;71.76
31062;BME280;17724;53.546;9.974;2023-03-04T22:22:48;101771.88;;;5.39;75.87
31062;BME280;17724;53.546;9.974;2023-03-04T22:26:48;101766.16;;;5.68;77.88
31062;BME280;17724;53.546;9.974;2023-03-04T22:30:49;101776.41;;;5.60;76.96
31062;BME280;17724;53.546;9.974;2023-03-04T22:34:50;101767.94;;;5.83;77.58
31062;BME280;17724;53.546;9.974;2023-03-04T22:38:50;101767.44;;;5.73;76.42
31062;BME280;17724;53.546;9.974;2023-03-04T22:42:51;101769.78;;;5.82;77.47
31062;BME280;17724;53.546;9.974;2023-03-04T22:46:51;101756.56;;;5.79;77.46
31062;BME280;17724;53.546;9.974;2023-03-04T22:50:52;101750.41;;;5.64;76.35
31062;BME280;17724;53.546;9.974;2023-03-04T22:54:52;101751.47;;;5.69;76.63